Terminal Aerodrome Forecast
Issued by NWS

Home | Current Version | Previous Version | Text Only | Print | Product List | Glossary On
Versions: 1 2 3 4 5 6 7 8 9 10 11 12
000
FTUS44 KJAN 191700
TAFGTR
TAF
KGTR 191720Z 1918/2018 05006KT P6SM BKN040
     FM192100 05005KT P6SM -RA BKN025 OVC040
     FM200100 03006KT P6SM -RA BKN006 OVC050
     FM200500 35006KT 4SM BR OVC003=

USA.gov is the U.S. government's official web portal to all federal, state and local government web resources and services.